createdAt,value
2022-09-11T00:01:40.127Z,19.59
2022-09-11T00:04:06.554Z,19.58
2022-09-11T00:06:32.907Z,19.54
2022-09-11T00:09:00.140Z,19.57
2022-09-11T00:11:28.389Z,19.53
2022-09-11T00:13:54.821Z,19.54
2022-09-11T00:16:22.630Z,19.57
2022-09-11T00:18:49.184Z,19.49
2022-09-11T00:21:15.683Z,19.51
2022-09-11T00:23:42.056Z,19.49
2022-09-11T00:26:08.437Z,19.49
2022-09-11T00:28:36.078Z,19.50
2022-09-11T00:31:03.506Z,19.49
2022-09-11T00:33:30.035Z,19.48
2022-09-11T00:35:57.355Z,19.48
2022-09-11T00:38:24.095Z,19.49
2022-09-11T00:40:50.518Z,19.45
2022-09-11T00:43:17.320Z,19.45
2022-09-11T00:45:45.830Z,19.42
2022-09-11T00:48:14.543Z,19.41
2022-09-11T00:50:42.492Z,19.42
2022-09-11T00:53:09.681Z,19.42
2022-09-11T00:55:37.132Z,19.41
2022-09-11T00:58:04.720Z,19.40
2022-09-11T01:00:31.106Z,19.37
2022-09-11T01:02:58.859Z,19.40
2022-09-11T01:05:26.703Z,19.42
2022-09-11T01:07:54.425Z,19.39
2022-09-11T01:10:24.138Z,19.40
2022-09-11T01:12:52.946Z,19.35
2022-09-11T01:15:21.567Z,19.34
2022-09-11T01:17:52.799Z,19.37
2022-09-11T01:20:29.809Z,19.36
2022-09-11T01:23:02.451Z,19.34
2022-09-11T01:25:36.803Z,19.31
2022-09-11T01:28:08.375Z,19.33
2022-09-11T01:30:37.300Z,19.32
2022-09-11T01:33:08.847Z,19.30
2022-09-11T01:35:39.829Z,19.27
2022-09-11T01:38:08.781Z,19.26
2022-09-11T01:40:38.541Z,19.25
2022-09-11T01:43:08.490Z,19.28
2022-09-11T01:45:35.479Z,19.27
2022-09-11T01:48:02.187Z,19.26
2022-09-11T01:50:30.946Z,19.26
2022-09-11T01:52:59.051Z,19.26
2022-09-11T01:55:28.412Z,19.25
2022-09-11T01:57:56.970Z,19.24
2022-09-11T02:00:24.603Z,19.24
2022-09-11T02:02:53.143Z,19.21
2022-09-11T02:05:21.564Z,19.21
2022-09-11T02:07:49.718Z,19.18
2022-09-11T02:10:18.039Z,19.22
2022-09-11T02:12:49.410Z,19.21
2022-09-11T02:15:16.380Z,19.16
2022-09-11T02:17:47.075Z,19.14
2022-09-11T02:20:14.275Z,19.14
2022-09-11T02:22:40.685Z,19.15
2022-09-11T02:25:07.320Z,19.15
2022-09-11T02:27:34.529Z,19.17
2022-09-11T02:30:00.878Z,19.15
2022-09-11T02:32:27.441Z,19.17
2022-09-11T02:34:55.364Z,19.15
2022-09-11T02:37:31.396Z,19.13
2022-09-11T02:40:04.071Z,19.11
2022-09-11T02:42:34.736Z,19.10
2022-09-11T02:45:06.683Z,19.10
2022-09-11T02:47:41.078Z,19.10
2022-09-11T02:50:13.812Z,19.08
2022-09-11T02:52:47.724Z,19.06
2022-09-11T02:55:18.846Z,19.03
2022-09-11T02:57:48.185Z,19.04
2022-09-11T03:00:14.620Z,19.03
2022-09-11T03:02:42.227Z,19.04
2022-09-11T03:05:11.031Z,19.05
2022-09-11T03:07:37.364Z,19.07
2022-09-11T03:10:03.832Z,19.07
2022-09-11T03:12:30.165Z,19.05
2022-09-11T03:14:56.429Z,19.02
2022-09-11T03:17:22.756Z,19.02
2022-09-11T03:19:49.237Z,19.04
2022-09-11T03:22:16.841Z,19.04
2022-09-11T03:24:43.281Z,19.04
2022-09-11T03:27:09.601Z,19.04
2022-09-11T03:29:35.984Z,19.04
2022-09-11T03:32:02.459Z,19.03
2022-09-11T03:34:28.808Z,19.02
2022-09-11T03:36:55.177Z,19.02
2022-09-11T03:39:22.802Z,19.00
2022-09-11T03:41:49.131Z,18.99
2022-09-11T03:44:15.446Z,18.98
2022-09-11T03:46:41.757Z,19.01
2022-09-11T03:49:08.113Z,19.01
2022-09-11T03:51:34.531Z,19.02
2022-09-11T03:54:01.061Z,18.99
2022-09-11T03:56:28.957Z,19.01
2022-09-11T03:58:55.523Z,19.01
2022-09-11T04:01:21.861Z,19.01
2022-09-11T04:03:48.223Z,19.01
2022-09-11T04:06:14.514Z,18.96
2022-09-11T04:08:40.905Z,18.98
2022-09-11T04:11:07.487Z,19.00
2022-09-11T04:13:36.670Z,18.98
2022-09-11T04:16:04.714Z,18.99
2022-09-11T04:18:34.152Z,19.00
2022-09-11T04:21:02.944Z,19.02
2022-09-11T04:23:29.313Z,18.99
2022-09-11T04:25:55.697Z,19.00
2022-09-11T04:28:22.110Z,19.01
2022-09-11T04:30:49.699Z,19.00
2022-09-11T04:33:16.022Z,18.99
2022-09-11T04:35:42.343Z,18.98
2022-09-11T04:38:08.692Z,18.98
2022-09-11T04:40:35.093Z,18.95
2022-09-11T04:43:01.793Z,18.96
2022-09-11T04:45:28.326Z,18.94
2022-09-11T04:47:55.964Z,18.93
2022-09-11T04:50:22.302Z,18.92
2022-09-11T04:52:48.624Z,18.91
2022-09-11T04:55:15.054Z,18.94
2022-09-11T04:57:41.366Z,18.91
2022-09-11T05:00:08.675Z,18.90
2022-09-11T05:02:34.978Z,18.93
2022-09-11T05:05:02.630Z,18.92
2022-09-11T05:07:28.938Z,18.89
2022-09-11T05:09:55.242Z,18.90
2022-09-11T05:12:21.611Z,18.87
2022-09-11T05:14:48.002Z,18.88
2022-09-11T05:17:14.303Z,18.87
2022-09-11T05:19:40.615Z,18.90
2022-09-11T05:22:09.148Z,18.87
2022-09-11T05:24:35.459Z,18.87
2022-09-11T05:27:01.902Z,18.83
2022-09-11T05:29:31.680Z,18.87
2022-09-11T05:31:59.062Z,18.85
2022-09-11T05:34:25.485Z,18.85
2022-09-11T05:36:51.786Z,18.85
2022-09-11T05:39:19.408Z,18.84
2022-09-11T05:41:45.769Z,18.84
2022-09-11T05:44:12.080Z,18.81
2022-09-11T05:46:38.402Z,18.81
2022-09-11T05:49:04.743Z,18.82
2022-09-11T05:51:31.056Z,18.82
2022-09-11T05:53:57.375Z,18.82
2022-09-11T05:56:25.977Z,18.81
2022-09-11T05:58:52.725Z,18.79
2022-09-11T06:01:20.078Z,18.79
2022-09-11T06:03:46.542Z,18.78
2022-09-11T06:06:12.905Z,18.79
2022-09-11T06:08:40.155Z,18.80
2022-09-11T06:11:07.184Z,18.79
2022-09-11T06:13:35.736Z,18.77
2022-09-11T06:16:02.237Z,18.78
2022-09-11T06:18:28.962Z,18.77
2022-09-11T06:20:55.904Z,18.77
2022-09-11T06:23:22.403Z,18.78
2022-09-11T06:25:48.713Z,18.78
2022-09-11T06:28:15.016Z,18.78
2022-09-11T06:30:42.818Z,18.74
2022-09-11T06:33:09.169Z,18.75
2022-09-11T06:35:35.590Z,18.74
2022-09-11T06:38:01.920Z,18.74
2022-09-11T06:40:28.232Z,18.75
2022-09-11T06:42:54.553Z,18.74
2022-09-11T06:45:20.862Z,18.76
2022-09-11T06:47:48.506Z,18.76
2022-09-11T06:50:14.837Z,18.77
2022-09-11T06:52:41.250Z,18.74
2022-09-11T06:55:07.891Z,18.75
2022-09-11T06:57:35.403Z,18.76
2022-09-11T07:00:04.285Z,18.76
2022-09-11T07:02:30.684Z,18.76
2022-09-11T07:04:58.289Z,18.73
2022-09-11T07:07:24.706Z,18.71
2022-09-11T07:09:50.997Z,18.71
2022-09-11T07:12:17.319Z,18.75
2022-09-11T07:14:43.654Z,18.76
2022-09-11T07:17:09.962Z,18.80
2022-09-11T07:19:36.276Z,18.80
2022-09-11T07:22:03.903Z,18.79
2022-09-11T07:24:30.206Z,18.77
2022-09-11T07:26:56.529Z,18.79
2022-09-11T07:29:22.818Z,18.80
2022-09-11T07:31:49.096Z,18.84
2022-09-11T07:34:15.536Z,18.83
2022-09-11T07:36:41.854Z,18.84
2022-09-11T07:39:09.664Z,18.88
2022-09-11T07:41:36.008Z,18.89
2022-09-11T07:44:02.377Z,18.91
2022-09-11T07:46:28.881Z,18.93
2022-09-11T07:48:55.403Z,18.96
2022-09-11T07:51:21.724Z,18.99
2022-09-11T07:53:49.025Z,18.99
2022-09-11T07:56:17.448Z,19.01
2022-09-11T07:58:44.458Z,19.03
2022-09-11T08:01:12.079Z,19.05
2022-09-11T08:03:38.796Z,19.05
2022-09-11T08:06:06.220Z,19.10
2022-09-11T08:08:32.678Z,19.13
2022-09-11T08:11:02.782Z,19.14
2022-09-11T08:13:30.428Z,19.17
2022-09-11T08:15:56.849Z,19.15
2022-09-11T08:18:23.400Z,19.18
2022-09-11T08:20:49.845Z,19.21
2022-09-11T08:23:16.181Z,19.22
2022-09-11T08:25:42.924Z,19.25
2022-09-11T08:28:09.324Z,19.25
2022-09-11T08:30:36.984Z,19.25
2022-09-11T08:33:03.396Z,19.26
2022-09-11T08:35:29.727Z,19.30
2022-09-11T08:37:56.137Z,19.30
2022-09-11T08:40:22.656Z,19.29
2022-09-11T08:42:49.353Z,19.33
2022-09-11T08:45:16.823Z,19.34
2022-09-11T08:47:47.623Z,19.33
2022-09-11T08:50:17.866Z,19.36
2022-09-11T08:52:44.199Z,19.38
2022-09-11T08:55:12.827Z,19.40
2022-09-11T08:57:43.569Z,19.41
2022-09-11T09:00:15.914Z,19.43
2022-09-11T09:02:50.432Z,19.42
2022-09-11T09:05:23.254Z,19.44
2022-09-11T09:07:58.915Z,19.46
2022-09-11T09:10:33.136Z,19.46
2022-09-11T09:13:05.151Z,19.46
2022-09-11T09:15:39.209Z,19.47
2022-09-11T09:18:08.783Z,19.49
2022-09-11T09:20:37.033Z,19.52
2022-09-11T09:23:06.956Z,19.50
2022-09-11T09:25:35.815Z,19.52
2022-09-11T09:28:03.636Z,19.53
2022-09-11T09:30:34.550Z,19.52
2022-09-11T09:33:03.003Z,19.52
2022-09-11T09:35:38.279Z,19.54
2022-09-11T09:38:08.735Z,19.55
2022-09-11T09:40:36.218Z,19.56
2022-09-11T09:43:16.775Z,19.59
2022-09-11T09:45:48.327Z,19.58
2022-09-11T09:48:14.941Z,19.59
2022-09-11T09:50:43.024Z,19.61
2022-09-11T09:53:13.863Z,19.61
2022-09-11T09:55:40.453Z,19.62
2022-09-11T09:58:06.794Z,19.62
2022-09-11T10:00:35.239Z,19.62
2022-09-11T10:03:16.720Z,19.63
2022-09-11T10:05:44.559Z,19.63
2022-09-11T10:08:24.021Z,19.64
2022-09-11T10:10:54.023Z,19.65
2022-09-11T10:13:21.816Z,19.65
2022-09-11T10:15:49.284Z,19.66
2022-09-11T10:18:24.167Z,19.68
2022-09-11T10:20:51.778Z,19.68
2022-09-11T10:23:22.140Z,19.69
2022-09-11T10:25:48.532Z,19.69
2022-09-11T10:28:17.755Z,19.70
2022-09-11T10:30:52.964Z,19.71
2022-09-11T10:33:24.652Z,19.71
2022-09-11T10:35:53.307Z,19.71
2022-09-11T10:38:19.963Z,19.73
2022-09-11T10:41:01.219Z,19.73
2022-09-11T10:43:31.675Z,19.73
2022-09-11T10:46:01.811Z,19.73
2022-09-11T10:48:28.137Z,19.75
2022-09-11T10:51:03.829Z,19.75
2022-09-11T10:53:33.812Z,19.76
2022-09-11T10:56:00.160Z,19.77
2022-09-11T10:58:29.718Z,19.78
2022-09-11T11:00:56.039Z,19.78
2022-09-11T11:03:24.118Z,19.79
2022-09-11T11:06:00.034Z,19.79
2022-09-11T11:08:36.232Z,19.79
2022-09-11T11:11:10.779Z,19.80
2022-09-11T11:13:45.742Z,19.79
2022-09-11T11:16:15.512Z,19.81
2022-09-11T11:18:51.754Z,19.81
2022-09-11T11:21:23.076Z,19.81
2022-09-11T11:23:57.467Z,19.82
2022-09-11T11:26:31.659Z,19.83
2022-09-11T11:29:07.812Z,19.84
2022-09-11T11:31:44.313Z,19.85
2022-09-11T11:34:20.105Z,19.84
2022-09-11T11:36:49.528Z,19.86
2022-09-11T11:39:22.867Z,19.86
2022-09-11T11:41:53.263Z,19.86
2022-09-11T11:44:26.710Z,19.86
2022-09-11T11:46:56.362Z,19.86
2022-09-11T11:49:27.513Z,19.86
2022-09-11T11:51:56.313Z,19.87
2022-09-11T11:54:25.416Z,19.88
2022-09-11T11:56:53.096Z,19.88
2022-09-11T11:59:23.328Z,19.90
2022-09-11T12:01:54.672Z,19.92
2022-09-11T12:04:29.570Z,19.93
2022-09-11T12:06:55.932Z,19.91
2022-09-11T12:09:23.556Z,19.92
2022-09-11T12:11:52.595Z,19.91
2022-09-11T12:14:25.114Z,19.91
2022-09-11T12:16:51.599Z,19.91
2022-09-11T12:19:18.820Z,19.91
2022-09-11T12:21:59.962Z,19.93
2022-09-11T12:24:49.914Z,19.93
2022-09-11T12:27:31.056Z,19.93
2022-09-11T12:29:57.698Z,19.94
2022-09-11T12:32:39.700Z,19.94
2022-09-11T12:35:15.811Z,19.95
2022-09-11T12:37:44.544Z,19.95
2022-09-11T12:40:15.768Z,19.95
2022-09-11T12:42:45.937Z,19.96
2022-09-11T12:45:27.264Z,19.96
2022-09-11T12:47:53.726Z,19.95
2022-09-11T12:50:22.539Z,19.95
2022-09-11T12:52:52.101Z,19.97
2022-09-11T12:55:28.713Z,19.97
2022-09-11T12:57:55.553Z,19.99
2022-09-11T13:00:22.986Z,19.99
2022-09-11T13:02:52.377Z,19.99
2022-09-11T13:05:21.790Z,20.00
2022-09-11T13:07:51.761Z,20.00
2022-09-11T13:10:24.532Z,20.00
2022-09-11T13:12:53.112Z,20.01
2022-09-11T13:15:34.152Z,20.00
2022-09-11T13:18:00.647Z,20.00
2022-09-11T13:20:27.039Z,20.00
2022-09-11T13:22:58.234Z,20.00
2022-09-11T13:25:25.130Z,20.01
2022-09-11T13:27:53.853Z,20.02
2022-09-11T13:30:21.605Z,20.03
2022-09-11T13:32:49.499Z,20.03
2022-09-11T13:35:16.889Z,20.02
2022-09-11T13:37:44.731Z,20.05
2022-09-11T13:40:17.277Z,20.04
2022-09-11T13:42:43.900Z,20.05
2022-09-11T13:45:15.606Z,20.03
2022-09-11T13:47:42.057Z,20.04
2022-09-11T13:50:11.067Z,20.03
2022-09-11T13:52:37.398Z,20.03
2022-09-11T13:55:09.521Z,20.04
2022-09-11T13:57:49.552Z,20.06
2022-09-11T14:00:30.693Z,20.06
2022-09-11T14:02:58.515Z,20.06
2022-09-11T14:05:26.385Z,20.07
2022-09-11T14:07:55.881Z,20.08
2022-09-11T14:10:24.422Z,20.08
2022-09-11T14:12:53.543Z,20.09
2022-09-11T14:15:22.003Z,20.07
2022-09-11T14:17:48.553Z,20.08
2022-09-11T14:20:18.078Z,20.08
2022-09-11T14:22:44.426Z,20.08
2022-09-11T14:25:19.908Z,20.08
2022-09-11T14:27:46.251Z,20.10
2022-09-11T14:30:24.199Z,20.10
2022-09-11T14:33:05.550Z,20.11
2022-09-11T14:35:35.610Z,20.10
2022-09-11T14:38:01.984Z,20.11
2022-09-11T14:40:28.316Z,20.11
2022-09-11T14:42:54.759Z,20.11
2022-09-11T14:45:21.978Z,20.10
2022-09-11T14:47:48.301Z,20.10
2022-09-11T14:50:14.856Z,20.11
2022-09-11T14:52:42.510Z,20.10
2022-09-11T14:55:13.163Z,20.11
2022-09-11T14:57:39.525Z,20.10
2022-09-11T15:00:06.319Z,20.13
2022-09-11T15:02:32.638Z,20.13
2022-09-11T15:04:58.950Z,20.14
2022-09-11T15:07:25.553Z,20.14
2022-09-11T15:09:53.872Z,20.14
2022-09-11T15:12:20.708Z,20.14
2022-09-11T15:15:03.042Z,20.15
2022-09-11T15:17:29.666Z,20.15
2022-09-11T15:19:56.020Z,20.16
2022-09-11T15:22:22.431Z,20.15
2022-09-11T15:24:48.862Z,20.15
2022-09-11T15:27:16.776Z,20.15
2022-09-11T15:29:43.082Z,20.16
2022-09-11T15:32:09.627Z,20.16
2022-09-11T15:34:35.969Z,20.16
2022-09-11T15:37:02.278Z,20.18
2022-09-11T15:39:28.636Z,20.18
2022-09-11T15:41:55.081Z,20.18
2022-09-11T15:44:23.833Z,20.19
2022-09-11T15:46:51.984Z,20.19
2022-09-11T15:49:19.137Z,20.19
2022-09-11T15:51:45.451Z,20.18
2022-09-11T15:54:11.858Z,20.19
2022-09-11T15:56:38.211Z,20.20
2022-09-11T15:59:04.815Z,20.20
2022-09-11T16:01:33.297Z,20.20
2022-09-11T16:04:00.926Z,20.21
2022-09-11T16:06:28.266Z,20.22
2022-09-11T16:08:56.189Z,20.22
2022-09-11T16:11:22.530Z,20.22
2022-09-11T16:13:48.849Z,20.23
2022-09-11T16:16:15.250Z,20.23
2022-09-11T16:18:43.049Z,20.23
2022-09-11T16:21:11.335Z,20.24
2022-09-11T16:23:37.767Z,20.24
2022-09-11T16:26:05.481Z,20.23
2022-09-11T16:28:32.941Z,20.25
2022-09-11T16:30:59.307Z,20.23
2022-09-11T16:33:25.661Z,20.25
2022-09-11T16:36:01.295Z,20.25
2022-09-11T16:38:27.638Z,20.27
2022-09-11T16:40:59.989Z,20.27
2022-09-11T16:43:26.318Z,20.29
2022-09-11T16:45:52.710Z,20.27
2022-09-11T16:48:19.030Z,20.30
2022-09-11T16:50:51.875Z,20.29
2022-09-11T16:53:19.474Z,20.30
2022-09-11T16:55:45.818Z,20.29
2022-09-11T16:58:12.238Z,20.29
2022-09-11T17:00:38.945Z,20.30
2022-09-11T17:03:05.370Z,20.30
2022-09-11T17:05:31.902Z,20.31
2022-09-11T17:07:58.217Z,20.33
2022-09-11T17:10:25.907Z,20.33
2022-09-11T17:12:53.768Z,20.33
2022-09-11T17:15:20.109Z,20.34
2022-09-11T17:17:46.720Z,20.34
2022-09-11T17:20:13.311Z,20.35
2022-09-11T17:22:39.963Z,20.35
2022-09-11T17:25:06.583Z,20.36
2022-09-11T17:27:34.225Z,20.34
2022-09-11T17:30:00.653Z,20.35
2022-09-11T17:32:28.605Z,20.36
2022-09-11T17:34:55.704Z,20.36
2022-09-11T17:37:22.028Z,20.37
2022-09-11T17:39:48.417Z,20.37
2022-09-11T17:42:14.765Z,20.39
2022-09-11T17:44:42.387Z,20.39
2022-09-11T17:47:08.977Z,20.39
2022-09-11T17:49:35.301Z,20.41
2022-09-11T17:52:01.756Z,20.41
2022-09-11T17:54:28.183Z,20.40
2022-09-11T17:56:54.937Z,20.40
2022-09-11T17:59:21.244Z,20.40
2022-09-11T18:01:48.998Z,20.40
2022-09-11T18:04:15.381Z,20.40
2022-09-11T18:06:41.700Z,20.41
2022-09-11T18:09:09.190Z,20.42
2022-09-11T18:11:35.503Z,20.44
2022-09-11T18:14:01.810Z,20.44
2022-09-11T18:16:28.273Z,20.44
2022-09-11T18:18:56.009Z,20.44
2022-09-11T18:21:22.720Z,20.44
2022-09-11T18:23:49.750Z,20.44
2022-09-11T18:26:19.826Z,20.43
2022-09-11T18:28:46.264Z,20.44
2022-09-11T18:31:12.663Z,20.44
2022-09-11T18:33:39.107Z,20.45
2022-09-11T18:36:07.468Z,20.45
2022-09-11T18:38:34.148Z,20.47
2022-09-11T18:41:00.472Z,20.47
2022-09-11T18:43:27.751Z,20.48
2022-09-11T18:45:54.551Z,20.48
2022-09-11T18:48:21.334Z,20.48
2022-09-11T18:50:47.886Z,20.47
2022-09-11T18:53:15.488Z,20.46
2022-09-11T18:55:41.790Z,20.48
2022-09-11T18:58:08.200Z,20.48
2022-09-11T19:00:34.665Z,20.49
2022-09-11T19:03:01.073Z,20.51
2022-09-11T19:05:27.464Z,20.52
2022-09-11T19:07:53.777Z,20.51
2022-09-11T19:10:21.428Z,20.51
2022-09-11T19:12:47.904Z,20.49
2022-09-11T19:15:14.220Z,20.49
2022-09-11T19:17:40.538Z,20.49
2022-09-11T19:20:08.612Z,20.52
2022-09-11T19:22:35.224Z,20.53
2022-09-11T19:25:01.528Z,20.54
2022-09-11T19:27:29.180Z,20.54
2022-09-11T19:29:55.607Z,20.55
2022-09-11T19:32:21.967Z,20.55
2022-09-11T19:34:48.314Z,20.54
2022-09-11T19:37:14.753Z,20.52
2022-09-11T19:39:41.110Z,20.52
2022-09-11T19:42:07.627Z,20.49
2022-09-11T19:44:35.239Z,20.51
2022-09-11T19:47:02.091Z,20.52
2022-09-11T19:49:28.441Z,20.52
2022-09-11T19:51:54.832Z,20.53
2022-09-11T19:54:21.676Z,20.52
2022-09-11T19:56:47.961Z,20.53
2022-09-11T19:59:14.323Z,20.55
2022-09-11T20:01:42.231Z,20.56
2022-09-11T20:04:08.572Z,20.52
2022-09-11T20:06:35.153Z,20.49
2022-09-11T20:11:48.297Z,20.53
2022-09-11T20:14:14.638Z,20.54
2022-09-11T20:16:42.261Z,20.55
2022-09-11T20:19:09.720Z,20.54
2022-09-11T20:21:36.047Z,20.53
2022-09-11T20:24:03.105Z,20.52
2022-09-11T20:26:30.194Z,20.50
2022-09-11T20:28:57.194Z,20.51
2022-09-11T20:31:24.571Z,20.48
2022-09-11T20:33:52.509Z,20.47
2022-09-11T20:36:19.280Z,20.45
2022-09-11T20:38:48.711Z,20.45
2022-09-11T20:41:15.155Z,20.49
2022-09-11T20:43:41.776Z,20.49
2022-09-11T20:46:08.785Z,20.47
2022-09-11T20:48:35.117Z,20.46
2022-09-11T20:51:03.437Z,20.44
2022-09-11T20:53:29.939Z,20.44
2022-09-11T20:56:00.534Z,20.45
2022-09-11T20:58:26.866Z,20.44
2022-09-11T21:00:53.239Z,20.44
2022-09-11T21:03:19.595Z,20.41
2022-09-11T21:05:45.998Z,20.41
2022-09-11T21:08:13.630Z,20.41
2022-09-11T21:10:39.948Z,20.41
2022-09-11T21:13:06.410Z,20.40
2022-09-11T21:15:32.702Z,20.39
2022-09-11T21:17:59.044Z,20.37
2022-09-11T21:20:25.374Z,20.36
2022-09-11T21:22:51.708Z,20.35
2022-09-11T21:25:19.331Z,20.34
2022-09-11T21:27:47.130Z,20.33
2022-09-11T21:30:13.636Z,20.34
2022-09-11T21:32:39.964Z,20.33
2022-09-11T21:35:06.855Z,20.32
2022-09-11T21:37:33.295Z,20.32
2022-09-11T21:39:59.643Z,20.30
2022-09-11T21:42:27.268Z,20.29
2022-09-11T21:44:53.677Z,20.29
2022-09-11T21:47:20.035Z,20.27
2022-09-11T21:49:46.334Z,20.25
2022-09-11T21:52:12.696Z,20.24
2022-09-11T21:54:39.093Z,20.23
2022-09-11T21:57:05.555Z,20.23
2022-09-11T21:59:33.218Z,20.22
2022-09-11T22:01:59.583Z,20.21
2022-09-11T22:04:25.933Z,20.21
2022-09-11T22:06:52.283Z,20.20
2022-09-11T22:09:18.713Z,20.20
2022-09-11T22:11:45.025Z,20.19
2022-09-11T22:14:11.356Z,20.19
2022-09-11T22:16:39.127Z,20.19
2022-09-11T22:19:05.510Z,20.18
2022-09-11T22:21:31.830Z,20.18
2022-09-11T22:23:58.333Z,20.18
2022-09-11T22:26:24.666Z,20.16
2022-09-11T22:28:51.297Z,20.16
2022-09-11T22:31:20.271Z,20.15
2022-09-11T22:33:47.943Z,20.16
2022-09-11T22:36:15.839Z,20.15
2022-09-11T22:38:42.417Z,20.15
2022-09-11T22:41:08.852Z,20.16
2022-09-11T22:43:35.683Z,20.16
2022-09-11T22:46:02.107Z,20.16
2022-09-11T22:48:28.878Z,20.16
2022-09-11T22:50:56.508Z,20.18
2022-09-11T22:53:22.998Z,20.18
2022-09-11T22:55:49.314Z,20.16
2022-09-11T22:58:15.751Z,20.16
2022-09-11T23:00:43.069Z,20.16
2022-09-11T23:03:09.827Z,20.14
2022-09-11T23:05:36.184Z,20.16
2022-09-11T23:08:03.908Z,20.18
2022-09-11T23:10:30.245Z,20.18
2022-09-11T23:12:56.702Z,20.16
2022-09-11T23:15:24.875Z,20.17
2022-09-11T23:17:51.215Z,20.18
2022-09-11T23:20:17.678Z,20.17
2022-09-11T23:22:44.006Z,20.18
2022-09-11T23:25:11.600Z,20.17
2022-09-11T23:27:37.915Z,20.18
2022-09-11T23:30:04.471Z,20.16
2022-09-11T23:32:30.801Z,20.19
2022-09-11T23:34:57.104Z,20.19
2022-09-11T23:37:23.415Z,20.19
2022-09-11T23:39:49.772Z,20.16
2022-09-11T23:42:17.427Z,20.17
2022-09-11T23:44:43.811Z,20.18
2022-09-11T23:47:10.182Z,20.15
2022-09-11T23:49:36.760Z,20.17
2022-09-11T23:52:03.445Z,20.14
2022-09-11T23:54:29.774Z,20.10
2022-09-11T23:56:56.126Z,20.10
2022-09-11T23:59:23.768Z,20.09
